sensor_id;sensor_type;location;lat;lon;timestamp;P1;durP1;ratioP1;P2;durP2;ratioP2
13425;SDS011;6785;57.918;12.530;2023-05-21T00:00:16;8.13;;;3.80;;
13425;SDS011;6785;57.918;12.530;2023-05-21T00:02:44;5.03;;;3.50;;
13425;SDS011;6785;57.918;12.530;2023-05-21T00:05:11;4.43;;;3.30;;
13425;SDS011;6785;57.918;12.530;2023-05-21T00:07:39;4.63;;;3.10;;
13425;SDS011;6785;57.918;12.530;2023-05-21T00:10:06;4.93;;;3.33;;
13425;SDS011;6785;57.918;12.530;2023-05-21T00:12:35;3.30;;;2.90;;
13425;SDS011;6785;57.918;12.530;2023-05-21T00:15:01;4.00;;;3.10;;
13425;SDS011;6785;57.918;12.530;2023-05-21T00:17:29;4.27;;;3.07;;
13425;SDS011;6785;57.918;12.530;2023-05-21T00:19:55;4.07;;;2.97;;
13425;SDS011;6785;57.918;12.530;2023-05-21T00:22:22;4.03;;;2.90;;
13425;SDS011;6785;57.918;12.530;2023-05-21T00:24:49;4.97;;;2.93;;
13425;SDS011;6785;57.918;12.530;2023-05-21T00:27:15;4.13;;;3.10;;
13425;SDS011;6785;57.918;12.530;2023-05-21T00:29:44;4.47;;;2.90;;
13425;SDS011;6785;57.918;12.530;2023-05-21T00:32:10;5.03;;;2.70;;
13425;SDS011;6785;57.918;12.530;2023-05-21T00:34:37;4.40;;;2.87;;
13425;SDS011;6785;57.918;12.530;2023-05-21T00:37:04;3.13;;;2.83;;
13425;SDS011;6785;57.918;12.530;2023-05-21T00:39:30;2.67;;;2.27;;
13425;SDS011;6785;57.918;12.530;2023-05-21T00:41:57;3.63;;;2.53;;
13425;SDS011;6785;57.918;12.530;2023-05-21T00:44:24;2.70;;;2.47;;
13425;SDS011;6785;57.918;12.530;2023-05-21T00:46:53;3.40;;;2.40;;
13425;SDS011;6785;57.918;12.530;2023-05-21T00:49:20;5.63;;;2.57;;
13425;SDS011;6785;57.918;12.530;2023-05-21T00:51:48;3.63;;;2.13;;
13425;SDS011;6785;57.918;12.530;2023-05-21T00:54:15;5.53;;;2.70;;
13425;SDS011;6785;57.918;12.530;2023-05-21T00:56:42;5.47;;;2.10;;
13425;SDS011;6785;57.918;12.530;2023-05-21T00:59:09;2.73;;;2.10;;
13425;SDS011;6785;57.918;12.530;2023-05-21T01:01:36;3.63;;;2.20;;
13425;SDS011;6785;57.918;12.530;2023-05-21T01:04:05;10.93;;;2.67;;
13425;SDS011;6785;57.918;12.530;2023-05-21T01:06:32;4.57;;;2.70;;
13425;SDS011;6785;57.918;12.530;2023-05-21T01:08:59;3.77;;;2.23;;
13425;SDS011;6785;57.918;12.530;2023-05-21T01:11:30;4.20;;;2.47;;
13425;SDS011;6785;57.918;12.530;2023-05-21T01:14:03;3.47;;;2.10;;
13425;SDS011;6785;57.918;12.530;2023-05-21T01:16:31;5.47;;;2.60;;
13425;SDS011;6785;57.918;12.530;2023-05-21T01:19:00;2.50;;;2.30;;
13425;SDS011;6785;57.918;12.530;2023-05-21T01:21:30;2.27;;;2.07;;
13425;SDS011;6785;57.918;12.530;2023-05-21T01:24:02;3.37;;;2.70;;
13425;SDS011;6785;57.918;12.530;2023-05-21T01:26:31;3.43;;;2.83;;
13425;SDS011;6785;57.918;12.530;2023-05-21T01:29:02;4.80;;;2.57;;
13425;SDS011;6785;57.918;12.530;2023-05-21T01:31:33;4.13;;;2.40;;
13425;SDS011;6785;57.918;12.530;2023-05-21T01:34:02;5.00;;;2.70;;
13425;SDS011;6785;57.918;12.530;2023-05-21T01:36:33;4.13;;;2.33;;
13425;SDS011;6785;57.918;12.530;2023-05-21T01:39:08;4.10;;;2.20;;
13425;SDS011;6785;57.918;12.530;2023-05-21T01:41:41;2.57;;;2.37;;
13425;SDS011;6785;57.918;12.530;2023-05-21T01:44:10;2.80;;;2.40;;
13425;SDS011;6785;57.918;12.530;2023-05-21T01:46:38;5.93;;;2.60;;
13425;SDS011;6785;57.918;12.530;2023-05-21T01:49:05;2.90;;;2.40;;
13425;SDS011;6785;57.918;12.530;2023-05-21T01:51:33;6.77;;;2.50;;
13425;SDS011;6785;57.918;12.530;2023-05-21T01:54:00;3.23;;;2.73;;
13425;SDS011;6785;57.918;12.530;2023-05-21T01:56:29;4.03;;;2.27;;
13425;SDS011;6785;57.918;12.530;2023-05-21T01:58:58;3.20;;;2.23;;
13425;SDS011;6785;57.918;12.530;2023-05-21T02:01:25;4.07;;;2.23;;
13425;SDS011;6785;57.918;12.530;2023-05-21T02:03:54;3.47;;;2.80;;
13425;SDS011;6785;57.918;12.530;2023-05-21T02:06:20;3.57;;;2.37;;
13425;SDS011;6785;57.918;12.530;2023-05-21T02:08:47;3.50;;;2.67;;
13425;SDS011;6785;57.918;12.530;2023-05-21T02:11:15;3.83;;;2.87;;
13425;SDS011;6785;57.918;12.530;2023-05-21T02:13:43;4.97;;;2.53;;
13425;SDS011;6785;57.918;12.530;2023-05-21T02:16:10;6.90;;;2.90;;
13425;SDS011;6785;57.918;12.530;2023-05-21T02:18:39;6.57;;;2.70;;
13425;SDS011;6785;57.918;12.530;2023-05-21T02:21:07;4.10;;;2.70;;
13425;SDS011;6785;57.918;12.530;2023-05-21T02:23:34;3.60;;;2.73;;
13425;SDS011;6785;57.918;12.530;2023-05-21T02:26:01;4.80;;;2.50;;
13425;SDS011;6785;57.918;12.530;2023-05-21T02:28:28;6.60;;;2.90;;
13425;SDS011;6785;57.918;12.530;2023-05-21T02:30:58;4.30;;;3.07;;
13425;SDS011;6785;57.918;12.530;2023-05-21T02:33:24;3.93;;;2.97;;
13425;SDS011;6785;57.918;12.530;2023-05-21T02:35:51;5.07;;;2.93;;
13425;SDS011;6785;57.918;12.530;2023-05-21T02:38:18;8.30;;;2.80;;
13425;SDS011;6785;57.918;12.530;2023-05-21T02:40:47;3.27;;;2.63;;
13425;SDS011;6785;57.918;12.530;2023-05-21T02:43:14;3.57;;;2.50;;
13425;SDS011;6785;57.918;12.530;2023-05-21T02:45:41;6.27;;;3.43;;
13425;SDS011;6785;57.918;12.530;2023-05-21T02:48:09;6.30;;;3.17;;
13425;SDS011;6785;57.918;12.530;2023-05-21T02:50:36;3.87;;;3.20;;
13425;SDS011;6785;57.918;12.530;2023-05-21T02:53:03;5.07;;;3.10;;
13425;SDS011;6785;57.918;12.530;2023-05-21T02:55:30;10.03;;;3.20;;
13425;SDS011;6785;57.918;12.530;2023-05-21T02:57:56;5.20;;;3.33;;
13425;SDS011;6785;57.918;12.530;2023-05-21T03:00:23;5.30;;;3.30;;
13425;SDS011;6785;57.918;12.530;2023-05-21T03:02:50;4.33;;;3.13;;
13425;SDS011;6785;57.918;12.530;2023-05-21T03:05:18;4.20;;;3.23;;
13425;SDS011;6785;57.918;12.530;2023-05-21T03:07:45;4.07;;;2.90;;
13425;SDS011;6785;57.918;12.530;2023-05-21T03:10:12;4.13;;;3.20;;
13425;SDS011;6785;57.918;12.530;2023-05-21T03:12:38;6.77;;;3.10;;
13425;SDS011;6785;57.918;12.530;2023-05-21T03:15:05;4.07;;;2.90;;
13425;SDS011;6785;57.918;12.530;2023-05-21T03:17:33;6.27;;;3.07;;
13425;SDS011;6785;57.918;12.530;2023-05-21T03:20:00;4.23;;;2.60;;
13425;SDS011;6785;57.918;12.530;2023-05-21T03:22:30;4.97;;;3.10;;
13425;SDS011;6785;57.918;12.530;2023-05-21T03:24:57;3.07;;;2.77;;
13425;SDS011;6785;57.918;12.530;2023-05-21T03:27:25;4.87;;;3.00;;
13425;SDS011;6785;57.918;12.530;2023-05-21T03:29:52;8.90;;;3.10;;
13425;SDS011;6785;57.918;12.530;2023-05-21T03:32:19;4.23;;;2.77;;
13425;SDS011;6785;57.918;12.530;2023-05-21T03:34:46;6.57;;;3.00;;
13425;SDS011;6785;57.918;12.530;2023-05-21T03:37:13;4.17;;;2.93;;
13425;SDS011;6785;57.918;12.530;2023-05-21T03:39:41;3.17;;;2.80;;
13425;SDS011;6785;57.918;12.530;2023-05-21T03:42:07;4.70;;;3.00;;
13425;SDS011;6785;57.918;12.530;2023-05-21T03:44:34;5.20;;;2.47;;
13425;SDS011;6785;57.918;12.530;2023-05-21T03:47:01;3.23;;;2.90;;
13425;SDS011;6785;57.918;12.530;2023-05-21T03:49:28;4.13;;;3.00;;
13425;SDS011;6785;57.918;12.530;2023-05-21T03:51:54;3.77;;;2.50;;
13425;SDS011;6785;57.918;12.530;2023-05-21T03:54:21;3.77;;;3.00;;
13425;SDS011;6785;57.918;12.530;2023-05-21T03:56:49;4.50;;;2.70;;
13425;SDS011;6785;57.918;12.530;2023-05-21T03:59:16;5.73;;;2.40;;
13425;SDS011;6785;57.918;12.530;2023-05-21T04:01:43;4.93;;;2.47;;
13425;SDS011;6785;57.918;12.530;2023-05-21T04:04:10;4.30;;;2.60;;
13425;SDS011;6785;57.918;12.530;2023-05-21T04:06:36;3.20;;;2.40;;
13425;SDS011;6785;57.918;12.530;2023-05-21T04:09:08;4.20;;;2.50;;
13425;SDS011;6785;57.918;12.530;2023-05-21T04:11:35;4.27;;;2.50;;
13425;SDS011;6785;57.918;12.530;2023-05-21T04:14:03;2.80;;;2.50;;
13425;SDS011;6785;57.918;12.530;2023-05-21T04:16:30;2.77;;;2.50;;
13425;SDS011;6785;57.918;12.530;2023-05-21T04:18:58;3.27;;;2.60;;
13425;SDS011;6785;57.918;12.530;2023-05-21T04:21:25;3.13;;;2.40;;
13425;SDS011;6785;57.918;12.530;2023-05-21T04:23:52;5.87;;;2.67;;
13425;SDS011;6785;57.918;12.530;2023-05-21T04:26:21;6.80;;;2.70;;
13425;SDS011;6785;57.918;12.530;2023-05-21T04:28:49;4.70;;;2.30;;
13425;SDS011;6785;57.918;12.530;2023-05-21T04:31:19;3.83;;;2.30;;
13425;SDS011;6785;57.918;12.530;2023-05-21T04:33:47;4.10;;;2.80;;
13425;SDS011;6785;57.918;12.530;2023-05-21T04:36:14;5.30;;;1.90;;
13425;SDS011;6785;57.918;12.530;2023-05-21T04:38:42;4.40;;;2.00;;
13425;SDS011;6785;57.918;12.530;2023-05-21T04:41:08;2.67;;;1.80;;
13425;SDS011;6785;57.918;12.530;2023-05-21T04:43:35;2.47;;;1.73;;
13425;SDS011;6785;57.918;12.530;2023-05-21T04:46:02;4.37;;;1.97;;
13425;SDS011;6785;57.918;12.530;2023-05-21T04:48:31;4.00;;;2.20;;
13425;SDS011;6785;57.918;12.530;2023-05-21T04:50:57;4.40;;;2.17;;
13425;SDS011;6785;57.918;12.530;2023-05-21T04:53:24;2.47;;;1.70;;
13425;SDS011;6785;57.918;12.530;2023-05-21T04:55:51;1.83;;;1.60;;
13425;SDS011;6785;57.918;12.530;2023-05-21T04:58:18;2.93;;;1.83;;
13425;SDS011;6785;57.918;12.530;2023-05-21T05:00:44;5.33;;;1.80;;
13425;SDS011;6785;57.918;12.530;2023-05-21T05:03:14;1.97;;;1.77;;
13425;SDS011;6785;57.918;12.530;2023-05-21T05:05:42;5.33;;;1.90;;
13425;SDS011;6785;57.918;12.530;2023-05-21T05:08:09;2.00;;;1.60;;
13425;SDS011;6785;57.918;12.530;2023-05-21T05:10:36;2.97;;;2.07;;
13425;SDS011;6785;57.918;12.530;2023-05-21T05:13:03;2.10;;;1.80;;
13425;SDS011;6785;57.918;12.530;2023-05-21T05:15:29;2.70;;;2.03;;
13425;SDS011;6785;57.918;12.530;2023-05-21T05:17:56;2.67;;;1.70;;
13425;SDS011;6785;57.918;12.530;2023-05-21T05:20:23;2.77;;;2.17;;
13425;SDS011;6785;57.918;12.530;2023-05-21T05:22:51;7.20;;;2.03;;
13425;SDS011;6785;57.918;12.530;2023-05-21T05:25:18;3.80;;;1.80;;
13425;SDS011;6785;57.918;12.530;2023-05-21T05:27:45;2.97;;;1.77;;
13425;SDS011;6785;57.918;12.530;2023-05-21T05:30:11;5.10;;;1.77;;
13425;SDS011;6785;57.918;12.530;2023-05-21T05:32:38;3.00;;;1.60;;
13425;SDS011;6785;57.918;12.530;2023-05-21T05:35:06;4.60;;;1.77;;
13425;SDS011;6785;57.918;12.530;2023-05-21T05:37:33;4.93;;;2.03;;
13425;SDS011;6785;57.918;12.530;2023-05-21T05:40:01;3.53;;;2.10;;
13425;SDS011;6785;57.918;12.530;2023-05-21T05:42:29;3.43;;;2.27;;
13425;SDS011;6785;57.918;12.530;2023-05-21T05:44:55;6.70;;;1.87;;
13425;SDS011;6785;57.918;12.530;2023-05-21T05:47:22;5.40;;;1.70;;
13425;SDS011;6785;57.918;12.530;2023-05-21T05:49:49;3.70;;;1.70;;
13425;SDS011;6785;57.918;12.530;2023-05-21T05:52:16;1.83;;;1.60;;
13425;SDS011;6785;57.918;12.530;2023-05-21T05:54:43;4.17;;;1.80;;
13425;SDS011;6785;57.918;12.530;2023-05-21T05:57:11;2.53;;;1.70;;
13425;SDS011;6785;57.918;12.530;2023-05-21T05:59:37;2.40;;;1.60;;
13425;SDS011;6785;57.918;12.530;2023-05-21T06:02:04;9.23;;;2.60;;
13425;SDS011;6785;57.918;12.530;2023-05-21T06:04:31;1.80;;;1.47;;
13425;SDS011;6785;57.918;12.530;2023-05-21T06:06:58;3.83;;;2.00;;
13425;SDS011;6785;57.918;12.530;2023-05-21T06:09:25;3.77;;;1.50;;
13425;SDS011;6785;57.918;12.530;2023-05-21T06:11:52;3.90;;;1.60;;
13425;SDS011;6785;57.918;12.530;2023-05-21T06:14:20;3.30;;;1.60;;
13425;SDS011;6785;57.918;12.530;2023-05-21T06:16:46;2.80;;;1.87;;
13425;SDS011;6785;57.918;12.530;2023-05-21T06:19:13;3.13;;;1.50;;
13425;SDS011;6785;57.918;12.530;2023-05-21T06:21:40;4.27;;;1.70;;
13425;SDS011;6785;57.918;12.530;2023-05-21T06:24:07;3.80;;;1.77;;
13425;SDS011;6785;57.918;12.530;2023-05-21T06:26:33;6.10;;;2.03;;
13425;SDS011;6785;57.918;12.530;2023-05-21T06:29:00;2.47;;;1.60;;
13425;SDS011;6785;57.918;12.530;2023-05-21T06:31:29;4.13;;;1.70;;
13425;SDS011;6785;57.918;12.530;2023-05-21T06:33:56;2.43;;;1.47;;
13425;SDS011;6785;57.918;12.530;2023-05-21T06:36:24;7.73;;;1.93;;
13425;SDS011;6785;57.918;12.530;2023-05-21T06:38:53;2.23;;;1.60;;
13425;SDS011;6785;57.918;12.530;2023-05-21T06:41:20;4.07;;;1.70;;
13425;SDS011;6785;57.918;12.530;2023-05-21T06:43:47;2.27;;;1.63;;
13425;SDS011;6785;57.918;12.530;2023-05-21T06:46:14;5.93;;;1.60;;
13425;SDS011;6785;57.918;12.530;2023-05-21T06:48:42;5.80;;;1.80;;
13425;SDS011;6785;57.918;12.530;2023-05-21T06:51:09;2.07;;;1.80;;
13425;SDS011;6785;57.918;12.530;2023-05-21T06:53:36;2.97;;;1.80;;
13425;SDS011;6785;57.918;12.530;2023-05-21T06:56:03;3.43;;;1.80;;
13425;SDS011;6785;57.918;12.530;2023-05-21T06:58:30;4.87;;;1.80;;
13425;SDS011;6785;57.918;12.530;2023-05-21T07:00:57;2.33;;;1.40;;
13425;SDS011;6785;57.918;12.530;2023-05-21T07:03:24;5.67;;;1.80;;
13425;SDS011;6785;57.918;12.530;2023-05-21T07:05:52;3.33;;;1.83;;
13425;SDS011;6785;57.918;12.530;2023-05-21T07:08:19;4.23;;;1.77;;
13425;SDS011;6785;57.918;12.530;2023-05-21T07:10:46;3.87;;;1.77;;
13425;SDS011;6785;57.918;12.530;2023-05-21T07:13:12;4.67;;;2.00;;
13425;SDS011;6785;57.918;12.530;2023-05-21T07:15:40;5.67;;;1.77;;
13425;SDS011;6785;57.918;12.530;2023-05-21T07:18:07;2.23;;;1.60;;
13425;SDS011;6785;57.918;12.530;2023-05-21T07:20:33;4.67;;;2.00;;
13425;SDS011;6785;57.918;12.530;2023-05-21T07:23:01;3.73;;;1.77;;
13425;SDS011;6785;57.918;12.530;2023-05-21T07:25:29;1.83;;;1.57;;
13425;SDS011;6785;57.918;12.530;2023-05-21T07:27:55;3.73;;;1.80;;
13425;SDS011;6785;57.918;12.530;2023-05-21T07:30:22;3.27;;;1.90;;
13425;SDS011;6785;57.918;12.530;2023-05-21T07:32:49;3.20;;;1.83;;
13425;SDS011;6785;57.918;12.530;2023-05-21T07:35:16;5.23;;;1.93;;
13425;SDS011;6785;57.918;12.530;2023-05-21T07:37:43;2.07;;;1.60;;
13425;SDS011;6785;57.918;12.530;2023-05-21T07:40:12;3.70;;;1.70;;
13425;SDS011;6785;57.918;12.530;2023-05-21T07:42:39;3.33;;;1.90;;
13425;SDS011;6785;57.918;12.530;2023-05-21T07:45:06;7.70;;;2.20;;
13425;SDS011;6785;57.918;12.530;2023-05-21T07:47:33;3.77;;;1.70;;
13425;SDS011;6785;57.918;12.530;2023-05-21T07:50:00;3.13;;;1.97;;
13425;SDS011;6785;57.918;12.530;2023-05-21T07:52:27;4.80;;;1.90;;
13425;SDS011;6785;57.918;12.530;2023-05-21T07:54:54;3.57;;;2.03;;
13425;SDS011;6785;57.918;12.530;2023-05-21T07:57:22;2.77;;;1.87;;
13425;SDS011;6785;57.918;12.530;2023-05-21T07:59:48;2.00;;;1.80;;
13425;SDS011;6785;57.918;12.530;2023-05-21T08:02:15;4.17;;;1.90;;
13425;SDS011;6785;57.918;12.530;2023-05-21T08:04:42;3.70;;;2.10;;
13425;SDS011;6785;57.918;12.530;2023-05-21T08:07:09;2.80;;;1.80;;
13425;SDS011;6785;57.918;12.530;2023-05-21T08:09:37;4.53;;;1.80;;
13425;SDS011;6785;57.918;12.530;2023-05-21T08:12:05;4.90;;;2.00;;
13425;SDS011;6785;57.918;12.530;2023-05-21T08:14:33;2.73;;;1.90;;
13425;SDS011;6785;57.918;12.530;2023-05-21T08:17:00;3.33;;;1.93;;
13425;SDS011;6785;57.918;12.530;2023-05-21T08:19:27;2.80;;;1.97;;
13425;SDS011;6785;57.918;12.530;2023-05-21T08:21:54;5.57;;;1.90;;
13425;SDS011;6785;57.918;12.530;2023-05-21T08:24:20;3.50;;;2.00;;
13425;SDS011;6785;57.918;12.530;2023-05-21T08:26:47;7.77;;;2.20;;
13425;SDS011;6785;57.918;12.530;2023-05-21T08:29:15;2.10;;;1.87;;
13425;SDS011;6785;57.918;12.530;2023-05-21T08:31:43;4.73;;;1.93;;
13425;SDS011;6785;57.918;12.530;2023-05-21T08:34:09;2.27;;;1.60;;
13425;SDS011;6785;57.918;12.530;2023-05-21T08:36:37;3.80;;;1.97;;
13425;SDS011;6785;57.918;12.530;2023-05-21T08:39:07;3.30;;;1.90;;
13425;SDS011;6785;57.918;12.530;2023-05-21T08:41:34;5.27;;;2.17;;
13425;SDS011;6785;57.918;12.530;2023-05-21T08:44:01;2.20;;;2.00;;
13425;SDS011;6785;57.918;12.530;2023-05-21T08:46:31;3.47;;;1.83;;
13425;SDS011;6785;57.918;12.530;2023-05-21T08:49:00;3.07;;;2.17;;
13425;SDS011;6785;57.918;12.530;2023-05-21T08:51:29;4.17;;;2.20;;
13425;SDS011;6785;57.918;12.530;2023-05-21T08:53:56;4.30;;;2.20;;
13425;SDS011;6785;57.918;12.530;2023-05-21T08:56:24;4.60;;;2.47;;
13425;SDS011;6785;57.918;12.530;2023-05-21T08:58:52;2.83;;;2.10;;
13425;SDS011;6785;57.918;12.530;2023-05-21T09:01:19;4.30;;;1.80;;
13425;SDS011;6785;57.918;12.530;2023-05-21T09:03:47;3.90;;;2.17;;
13425;SDS011;6785;57.918;12.530;2023-05-21T09:06:16;5.27;;;1.93;;
13425;SDS011;6785;57.918;12.530;2023-05-21T09:08:44;3.73;;;2.00;;
13425;SDS011;6785;57.918;12.530;2023-05-21T09:11:14;22.20;;;2.70;;
13425;SDS011;6785;57.918;12.530;2023-05-21T09:13:41;5.30;;;2.20;;
13425;SDS011;6785;57.918;12.530;2023-05-21T09:16:10;2.30;;;2.00;;
13425;SDS011;6785;57.918;12.530;2023-05-21T09:18:37;6.20;;;2.40;;
13425;SDS011;6785;57.918;12.530;2023-05-21T09:23:54;4.13;;;1.80;;
13425;SDS011;6785;57.918;12.530;2023-05-21T09:26:21;3.10;;;2.27;;
13425;SDS011;6785;57.918;12.530;2023-05-21T09:28:49;2.90;;;2.00;;
13425;SDS011;6785;57.918;12.530;2023-05-21T09:31:16;3.67;;;2.33;;
13425;SDS011;6785;57.918;12.530;2023-05-21T09:33:44;4.87;;;1.93;;
13425;SDS011;6785;57.918;12.530;2023-05-21T09:36:12;4.27;;;2.20;;
13425;SDS011;6785;57.918;12.530;2023-05-21T09:38:41;3.87;;;2.20;;
13425;SDS011;6785;57.918;12.530;2023-05-21T09:41:10;4.00;;;2.27;;
13425;SDS011;6785;57.918;12.530;2023-05-21T09:43:36;3.10;;;2.30;;
13425;SDS011;6785;57.918;12.530;2023-05-21T09:46:06;7.57;;;2.27;;
13425;SDS011;6785;57.918;12.530;2023-05-21T09:48:34;2.80;;;2.33;;
13425;SDS011;6785;57.918;12.530;2023-05-21T09:51:09;2.70;;;2.20;;
13425;SDS011;6785;57.918;12.530;2023-05-21T09:53:45;3.80;;;2.57;;
13425;SDS011;6785;57.918;12.530;2023-05-21T09:56:16;4.13;;;2.20;;
13425;SDS011;6785;57.918;12.530;2023-05-21T09:58:46;4.77;;;2.10;;
13425;SDS011;6785;57.918;12.530;2023-05-21T10:01:13;5.03;;;2.47;;
13425;SDS011;6785;57.918;12.530;2023-05-21T10:03:39;4.10;;;2.63;;
13425;SDS011;6785;57.918;12.530;2023-05-21T10:06:08;4.83;;;2.53;;
13425;SDS011;6785;57.918;12.530;2023-05-21T10:08:36;3.93;;;2.43;;
13425;SDS011;6785;57.918;12.530;2023-05-21T10:11:09;4.53;;;2.30;;
13425;SDS011;6785;57.918;12.530;2023-05-21T10:13:37;2.70;;;2.17;;
13425;SDS011;6785;57.918;12.530;2023-05-21T10:16:09;5.47;;;2.53;;
13425;SDS011;6785;57.918;12.530;2023-05-21T10:18:37;2.93;;;2.40;;
13425;SDS011;6785;57.918;12.530;2023-05-21T10:21:05;5.00;;;2.57;;
13425;SDS011;6785;57.918;12.530;2023-05-21T10:23:33;4.10;;;2.50;;
13425;SDS011;6785;57.918;12.530;2023-05-21T10:26:02;2.63;;;2.37;;
13425;SDS011;6785;57.918;12.530;2023-05-21T10:28:33;5.57;;;2.63;;
13425;SDS011;6785;57.918;12.530;2023-05-21T10:31:01;5.10;;;3.00;;
13425;SDS011;6785;57.918;12.530;2023-05-21T10:33:29;4.53;;;2.77;;
13425;SDS011;6785;57.918;12.530;2023-05-21T10:35:58;2.93;;;2.63;;
13425;SDS011;6785;57.918;12.530;2023-05-21T10:38:26;3.67;;;2.83;;
13425;SDS011;6785;57.918;12.530;2023-05-21T10:40:55;3.07;;;2.53;;
13425;SDS011;6785;57.918;12.530;2023-05-21T10:43:36;6.80;;;2.70;;
13425;SDS011;6785;57.918;12.530;2023-05-21T10:46:19;5.47;;;2.70;;
13425;SDS011;6785;57.918;12.530;2023-05-21T10:49:09;8.10;;;2.57;;
13425;SDS011;6785;57.918;12.530;2023-05-21T10:51:58;3.93;;;2.90;;
13425;SDS011;6785;57.918;12.530;2023-05-21T10:54:42;4.27;;;2.80;;
13425;SDS011;6785;57.918;12.530;2023-05-21T10:57:21;9.97;;;2.90;;
13425;SDS011;6785;57.918;12.530;2023-05-21T11:00:02;5.93;;;2.83;;
13425;SDS011;6785;57.918;12.530;2023-05-21T11:02:31;3.47;;;3.10;;
13425;SDS011;6785;57.918;12.530;2023-05-21T11:04:58;4.23;;;2.67;;
13425;SDS011;6785;57.918;12.530;2023-05-21T11:10:28;5.03;;;2.80;;
13425;SDS011;6785;57.918;12.530;2023-05-21T11:13:09;3.88;;;2.60;;
13425;SDS011;6785;57.918;12.530;2023-05-21T11:18:57;5.65;;;3.22;;
13425;SDS011;6785;57.918;12.530;2023-05-21T11:21:28;4.68;;;3.10;;
13425;SDS011;6785;57.918;12.530;2023-05-21T11:23:58;3.40;;;2.95;;
13425;SDS011;6785;57.918;12.530;2023-05-21T11:26:27;6.57;;;2.88;;
13425;SDS011;6785;57.918;12.530;2023-05-21T11:29:05;4.38;;;2.97;;
13425;SDS011;6785;57.918;12.530;2023-05-21T11:31:34;3.55;;;2.97;;
13425;SDS011;6785;57.918;12.530;2023-05-21T11:34:10;5.10;;;3.43;;
13425;SDS011;6785;57.918;12.530;2023-05-21T11:36:37;4.55;;;2.60;;
13425;SDS011;6785;57.918;12.530;2023-05-21T11:39:08;3.35;;;2.90;;
13425;SDS011;6785;57.918;12.530;2023-05-21T11:44:36;5.55;;;3.13;;
13425;SDS011;6785;57.918;12.530;2023-05-21T11:47:06;3.80;;;2.95;;
13425;SDS011;6785;57.918;12.530;2023-05-21T11:49:34;5.35;;;3.28;;
13425;SDS011;6785;57.918;12.530;2023-05-21T11:52:03;3.25;;;2.33;;
13425;SDS011;6785;57.918;12.530;2023-05-21T11:54:31;6.32;;;2.90;;
13425;SDS011;6785;57.918;12.530;2023-05-21T11:57:01;5.25;;;3.30;;
13425;SDS011;6785;57.918;12.530;2023-05-21T11:59:30;4.50;;;3.00;;
13425;SDS011;6785;57.918;12.530;2023-05-21T12:01:58;4.60;;;2.80;;
13425;SDS011;6785;57.918;12.530;2023-05-21T12:04:29;4.97;;;2.90;;
13425;SDS011;6785;57.918;12.530;2023-05-21T12:06:56;3.92;;;2.88;;
13425;SDS011;6785;57.918;12.530;2023-05-21T12:09:23;3.55;;;2.50;;
13425;SDS011;6785;57.918;12.530;2023-05-21T12:11:50;4.18;;;2.60;;
13425;SDS011;6785;57.918;12.530;2023-05-21T12:14:17;3.92;;;2.90;;
13425;SDS011;6785;57.918;12.530;2023-05-21T12:16:43;3.38;;;2.65;;
13425;SDS011;6785;57.918;12.530;2023-05-21T12:19:10;3.65;;;2.60;;
13425;SDS011;6785;57.918;12.530;2023-05-21T12:21:38;3.08;;;2.78;;
13425;SDS011;6785;57.918;12.530;2023-05-21T12:24:07;5.50;;;2.85;;
13425;SDS011;6785;57.918;12.530;2023-05-21T12:26:33;3.97;;;2.70;;
13425;SDS011;6785;57.918;12.530;2023-05-21T12:29:00;3.88;;;3.28;;
13425;SDS011;6785;57.918;12.530;2023-05-21T12:31:30;6.15;;;3.42;;
13425;SDS011;6785;57.918;12.530;2023-05-21T12:33:57;3.97;;;2.78;;
13425;SDS011;6785;57.918;12.530;2023-05-21T12:36:26;3.38;;;2.53;;
13425;SDS011;6785;57.918;12.530;2023-05-21T12:38:57;3.47;;;2.90;;
13425;SDS011;6785;57.918;12.530;2023-05-21T12:41:24;4.90;;;3.03;;
13425;SDS011;6785;57.918;12.530;2023-05-21T12:43:51;3.83;;;2.83;;
13425;SDS011;6785;57.918;12.530;2023-05-21T12:46:18;8.68;;;3.22;;
13425;SDS011;6785;57.918;12.530;2023-05-21T12:48:47;3.35;;;2.70;;
13425;SDS011;6785;57.918;12.530;2023-05-21T12:51:15;5.15;;;3.05;;
13425;SDS011;6785;57.918;12.530;2023-05-21T12:53:42;3.47;;;2.78;;
13425;SDS011;6785;57.918;12.530;2023-05-21T12:56:10;6.70;;;2.97;;
13425;SDS011;6785;57.918;12.530;2023-05-21T12:58:38;5.43;;;2.90;;
13425;SDS011;6785;57.918;12.530;2023-05-21T13:01:05;3.30;;;2.90;;
13425;SDS011;6785;57.918;12.530;2023-05-21T13:03:33;3.90;;;3.03;;
13425;SDS011;6785;57.918;12.530;2023-05-21T13:05:59;3.28;;;2.58;;
13425;SDS011;6785;57.918;12.530;2023-05-21T13:08:27;4.40;;;2.88;;
13425;SDS011;6785;57.918;12.530;2023-05-21T13:10:54;4.97;;;2.90;;
13425;SDS011;6785;57.918;12.530;2023-05-21T13:13:22;5.57;;;2.85;;
13425;SDS011;6785;57.918;12.530;2023-05-21T13:15:49;4.70;;;3.10;;
13425;SDS011;6785;57.918;12.530;2023-05-21T13:18:16;4.75;;;2.65;;
13425;SDS011;6785;57.918;12.530;2023-05-21T13:20:44;4.40;;;2.85;;
13425;SDS011;6785;57.918;12.530;2023-05-21T13:23:11;3.67;;;2.83;;
13425;SDS011;6785;57.918;12.530;2023-05-21T13:25:39;3.17;;;2.70;;
13425;SDS011;6785;57.918;12.530;2023-05-21T13:28:05;4.93;;;2.83;;
13425;SDS011;6785;57.918;12.530;2023-05-21T13:30:35;3.50;;;2.95;;
13425;SDS011;6785;57.918;12.530;2023-05-21T13:33:02;4.32;;;2.95;;
13425;SDS011;6785;57.918;12.530;2023-05-21T13:35:30;3.10;;;2.78;;
13425;SDS011;6785;57.918;12.530;2023-05-21T13:37:58;5.55;;;3.00;;
13425;SDS011;6785;57.918;12.530;2023-05-21T13:40:25;6.70;;;2.78;;
13425;SDS011;6785;57.918;12.530;2023-05-21T13:42:52;3.30;;;2.97;;
13425;SDS011;6785;57.918;12.530;2023-05-21T13:45:19;4.35;;;3.10;;
13425;SDS011;6785;57.918;12.530;2023-05-21T13:47:49;3.42;;;3.13;;
13425;SDS011;6785;57.918;12.530;2023-05-21T13:50:16;3.95;;;2.90;;
13425;SDS011;6785;57.918;12.530;2023-05-21T13:52:43;4.43;;;3.15;;
13425;SDS011;6785;57.918;12.530;2023-05-21T13:55:10;3.90;;;3.10;;
13425;SDS011;6785;57.918;12.530;2023-05-21T13:57:36;6.22;;;3.15;;
13425;SDS011;6785;57.918;12.530;2023-05-21T14:00:05;4.22;;;3.00;;
13425;SDS011;6785;57.918;12.530;2023-05-21T14:02:33;6.00;;;3.10;;
13425;SDS011;6785;57.918;12.530;2023-05-21T14:05:01;4.40;;;2.63;;
13425;SDS011;6785;57.918;12.530;2023-05-21T14:07:28;5.32;;;3.13;;
13425;SDS011;6785;57.918;12.530;2023-05-21T14:09:54;5.15;;;3.08;;
13425;SDS011;6785;57.918;12.530;2023-05-21T14:12:22;4.97;;;3.13;;
13425;SDS011;6785;57.918;12.530;2023-05-21T14:14:49;5.07;;;3.03;;
13425;SDS011;6785;57.918;12.530;2023-05-21T14:17:16;2.72;;;2.50;;
13425;SDS011;6785;57.918;12.530;2023-05-21T14:19:43;3.20;;;2.90;;
13425;SDS011;6785;57.918;12.530;2023-05-21T14:22:11;6.50;;;3.28;;
13425;SDS011;6785;57.918;12.530;2023-05-21T14:24:37;3.92;;;3.03;;
13425;SDS011;6785;57.918;12.530;2023-05-21T14:27:04;5.05;;;3.17;;
13425;SDS011;6785;57.918;12.530;2023-05-21T14:29:31;4.90;;;3.03;;
13425;SDS011;6785;57.918;12.530;2023-05-21T14:31:58;6.82;;;2.90;;
13425;SDS011;6785;57.918;12.530;2023-05-21T14:34:24;3.80;;;3.00;;
13425;SDS011;6785;57.918;12.530;2023-05-21T14:36:51;3.35;;;2.88;;
13425;SDS011;6785;57.918;12.530;2023-05-21T14:39:19;3.95;;;2.67;;
13425;SDS011;6785;57.918;12.530;2023-05-21T14:41:46;5.13;;;3.15;;
13425;SDS011;6785;57.918;12.530;2023-05-21T14:44:13;3.22;;;2.80;;
13425;SDS011;6785;57.918;12.530;2023-05-21T14:46:40;5.60;;;3.00;;
13425;SDS011;6785;57.918;12.530;2023-05-21T14:49:06;4.80;;;3.20;;
13425;SDS011;6785;57.918;12.530;2023-05-21T14:51:33;2.80;;;2.60;;
13425;SDS011;6785;57.918;12.530;2023-05-21T14:54:00;5.43;;;2.78;;
13425;SDS011;6785;57.918;12.530;2023-05-21T14:56:28;4.32;;;2.92;;
13425;SDS011;6785;57.918;12.530;2023-05-21T14:58:55;3.30;;;2.60;;
13425;SDS011;6785;57.918;12.530;2023-05-21T15:01:21;3.45;;;2.70;;
13425;SDS011;6785;57.918;12.530;2023-05-21T15:03:48;4.45;;;2.83;;